createdAt,value
2022-10-25T00:00:40.810Z,100.00
2022-10-25T00:03:09.457Z,100.00
2022-10-25T00:05:36.551Z,100.00
2022-10-25T00:08:03.564Z,100.00
2022-10-25T00:10:30.414Z,100.00
2022-10-25T00:12:57.317Z,100.00
2022-10-25T00:15:24.122Z,100.00
2022-10-25T00:17:50.763Z,100.00
2022-10-25T00:20:18.122Z,100.00
2022-10-25T00:22:45.001Z,100.00
2022-10-25T00:25:12.115Z,100.00
2022-10-25T00:27:38.911Z,100.00
2022-10-25T00:30:06.599Z,100.00
2022-10-25T00:32:34.257Z,100.00
2022-10-25T00:35:01.062Z,100.00
2022-10-25T00:37:28.052Z,100.00
2022-10-25T00:39:54.655Z,100.00
2022-10-25T00:42:24.431Z,100.00
2022-10-25T00:44:57.225Z,100.00
2022-10-25T00:47:32.705Z,100.00
2022-10-25T00:50:18.224Z,100.00
2022-10-25T00:52:47.383Z,100.00
2022-10-25T00:55:18.885Z,100.00
2022-10-25T00:58:00.979Z,100.00
2022-10-25T01:00:27.924Z,100.00
2022-10-25T01:05:26.437Z,100.00
2022-10-25T01:07:53.151Z,100.00
2022-10-25T01:10:19.735Z,100.00
2022-10-25T01:12:48.669Z,100.00
2022-10-25T01:15:18.151Z,100.00
2022-10-25T01:18:02.159Z,100.00
2022-10-25T01:20:44.048Z,100.00
2022-10-25T01:23:26.844Z,100.00
2022-10-25T01:26:12.206Z,100.00
2022-10-25T01:29:12.200Z,100.00
2022-10-25T01:31:50.449Z,100.00
2022-10-25T01:34:26.794Z,100.00
2022-10-25T01:37:00.544Z,100.00
2022-10-25T01:39:39.763Z,100.00
2022-10-25T01:42:07.732Z,100.00
2022-10-25T01:44:49.699Z,100.00
2022-10-25T01:47:28.464Z,100.00
2022-10-25T01:50:05.865Z,100.00
2022-10-25T01:52:32.502Z,100.00
2022-10-25T01:54:59.041Z,100.00
2022-10-25T01:57:45.354Z,100.00
2022-10-25T02:00:17.904Z,100.00
2022-10-25T02:02:59.810Z,100.00
2022-10-25T02:05:45.620Z,100.00
2022-10-25T02:08:29.057Z,100.00
2022-10-25T02:11:17.979Z,100.00
2022-10-25T02:13:53.651Z,100.00
2022-10-25T02:16:26.383Z,100.00
2022-10-25T02:18:59.491Z,100.00
2022-10-25T02:21:28.855Z,100.00
2022-10-25T02:23:58.235Z,100.00
2022-10-25T02:26:25.072Z,100.00
2022-10-25T02:28:55.177Z,100.00
2022-10-25T02:31:24.771Z,100.00
2022-10-25T02:33:51.823Z,100.00
2022-10-25T02:36:23.923Z,100.00
2022-10-25T02:38:53.044Z,100.00
2022-10-25T02:41:21.447Z,100.00
2022-10-25T02:43:48.323Z,100.00
2022-10-25T02:46:18.119Z,100.00
2022-10-25T02:48:44.742Z,100.00
2022-10-25T02:51:12.499Z,100.00
2022-10-25T02:53:39.586Z,100.00
2022-10-25T02:56:07.860Z,100.00
2022-10-25T02:58:36.703Z,100.00
2022-10-25T03:01:04.925Z,100.00
2022-10-25T03:03:32.310Z,100.00
2022-10-25T03:05:59.053Z,100.00
2022-10-25T03:10:58.527Z,100.00
2022-10-25T03:13:25.153Z,100.00
2022-10-25T03:15:51.777Z,100.00
2022-10-25T03:18:18.577Z,100.00
2022-10-25T03:20:45.455Z,100.00
2022-10-25T03:23:12.584Z,100.00
2022-10-25T03:25:39.213Z,100.00
2022-10-25T03:28:05.874Z,100.00
2022-10-25T03:30:32.494Z,100.00
2022-10-25T03:32:59.196Z,100.00
2022-10-25T03:35:26.456Z,100.00
2022-10-25T03:37:53.623Z,100.00
2022-10-25T03:40:21.015Z,100.00
2022-10-25T03:42:47.706Z,100.00
2022-10-25T03:45:14.435Z,100.00
2022-10-25T03:47:41.034Z,100.00
2022-10-25T03:50:08.174Z,100.00
2022-10-25T03:52:35.817Z,100.00
2022-10-25T03:55:02.441Z,100.00
2022-10-25T03:57:29.086Z,100.00
2022-10-25T03:59:57.751Z,100.00
2022-10-25T04:02:24.383Z,100.00
2022-10-25T04:04:50.967Z,100.00
2022-10-25T04:07:17.682Z,100.00
2022-10-25T04:09:44.775Z,100.00
2022-10-25T04:12:11.650Z,100.00
2022-10-25T04:14:38.317Z,100.00
2022-10-25T04:17:04.939Z,100.00
2022-10-25T04:19:31.519Z,100.00
2022-10-25T04:21:58.152Z,100.00
2022-10-25T04:24:24.721Z,100.00
2022-10-25T04:26:51.363Z,100.00
2022-10-25T04:29:17.946Z,100.00
2022-10-25T04:31:44.562Z,100.00
2022-10-25T04:34:11.358Z,100.00
2022-10-25T04:36:39.141Z,100.00
2022-10-25T04:39:05.995Z,100.00
2022-10-25T04:41:32.767Z,100.00
2022-10-25T04:43:59.389Z,100.00
2022-10-25T04:46:26.023Z,100.00
2022-10-25T04:48:52.810Z,100.00
2022-10-25T04:51:19.443Z,100.00
2022-10-25T04:53:46.086Z,100.00
2022-10-25T04:56:14.431Z,100.00
2022-10-25T04:58:41.536Z,100.00
2022-10-25T05:01:11.534Z,100.00
2022-10-25T05:03:38.670Z,100.00
2022-10-25T05:06:07.202Z,100.00
2022-10-25T05:08:34.513Z,100.00
2022-10-25T05:11:01.280Z,100.00
2022-10-25T05:13:31.649Z,100.00
2022-10-25T05:15:58.905Z,100.00
2022-10-25T05:18:25.642Z,100.00
2022-10-25T05:20:55.945Z,100.00
2022-10-25T05:23:23.487Z,100.00
2022-10-25T05:26:04.959Z,100.00
2022-10-25T05:28:32.635Z,100.00
2022-10-25T05:31:04.085Z,100.00
2022-10-25T05:33:30.743Z,100.00
2022-10-25T05:36:00.278Z,100.00
2022-10-25T05:38:27.889Z,100.00
2022-10-25T05:40:55.938Z,100.00
2022-10-25T05:43:23.152Z,100.00
2022-10-25T05:45:50.274Z,100.00
2022-10-25T05:48:18.789Z,100.00
2022-10-25T05:50:45.769Z,100.00
2022-10-25T05:53:12.444Z,100.00
2022-10-25T05:55:39.033Z,100.00
2022-10-25T05:58:06.883Z,100.00
2022-10-25T06:00:33.548Z,100.00
2022-10-25T06:03:02.182Z,100.00
2022-10-25T06:05:29.403Z,100.00
2022-10-25T06:07:56.119Z,100.00
2022-10-25T06:10:22.999Z,100.00
2022-10-25T06:12:50.067Z,100.00
2022-10-25T06:15:16.912Z,100.00
2022-10-25T06:17:43.494Z,100.00
2022-10-25T06:20:10.364Z,100.00
2022-10-25T06:22:37.095Z,100.00
2022-10-25T06:25:03.912Z,100.00
2022-10-25T06:27:30.516Z,100.00
2022-10-25T06:30:00.381Z,100.00
2022-10-25T06:32:28.337Z,100.00
2022-10-25T06:34:54.915Z,100.00
2022-10-25T06:37:24.791Z,100.00
2022-10-25T06:39:51.563Z,100.00
2022-10-25T06:42:18.181Z,100.00
2022-10-25T06:44:44.824Z,100.00
2022-10-25T06:47:17.341Z,100.00
2022-10-25T06:49:45.779Z,100.00
2022-10-25T06:52:12.396Z,100.00
2022-10-25T06:54:39.013Z,100.00
2022-10-25T06:57:05.681Z,100.00
2022-10-25T06:59:32.355Z,100.00
2022-10-25T07:01:59.072Z,100.00
2022-10-25T07:04:25.741Z,100.00
2022-10-25T07:06:55.127Z,100.00
2022-10-25T07:09:22.398Z,100.00
2022-10-25T07:11:48.995Z,100.00
2022-10-25T07:14:15.686Z,100.00
2022-10-25T07:16:42.479Z,100.00
2022-10-25T07:19:10.572Z,100.00
2022-10-25T07:21:37.228Z,100.00
2022-10-25T07:24:04.154Z,100.00
2022-10-25T07:26:34.347Z,100.00
2022-10-25T07:29:02.213Z,100.00
2022-10-25T07:31:33.271Z,100.00
2022-10-25T07:34:01.871Z,100.00
2022-10-25T07:36:29.015Z,100.00
2022-10-25T07:38:57.077Z,100.00
2022-10-25T07:41:24.906Z,100.00
2022-10-25T07:43:51.934Z,100.00
2022-10-25T07:46:18.625Z,100.00
2022-10-25T07:48:45.278Z,100.00
2022-10-25T07:51:14.563Z,100.00
2022-10-25T07:53:41.610Z,100.00
2022-10-25T07:56:16.203Z,100.00
2022-10-25T07:58:46.296Z,100.00
2022-10-25T08:01:18.054Z,100.00
2022-10-25T08:03:44.723Z,100.00
2022-10-25T08:06:11.304Z,100.00
2022-10-25T08:08:38.036Z,100.00
2022-10-25T08:11:08.119Z,100.00
2022-10-25T08:13:37.356Z,100.00
2022-10-25T08:16:05.800Z,100.00
2022-10-25T08:18:33.803Z,100.00
2022-10-25T08:21:03.956Z,100.00
2022-10-25T08:23:32.027Z,100.00
2022-10-25T08:25:59.296Z,100.00
2022-10-25T08:28:26.179Z,100.00
2022-10-25T08:30:55.699Z,100.00
2022-10-25T08:33:23.690Z,100.00
2022-10-25T08:35:50.309Z,100.00
2022-10-25T08:38:17.020Z,100.00
2022-10-25T08:40:43.551Z,100.00
2022-10-25T08:43:28.497Z,100.00
2022-10-25T08:46:00.267Z,100.00
2022-10-25T08:48:34.450Z,100.00
2022-10-25T08:51:10.650Z,100.00
2022-10-25T08:53:40.549Z,100.00
2022-10-25T08:56:16.679Z,100.00
2022-10-25T08:58:48.633Z,100.00
2022-10-25T09:01:22.643Z,100.00
2022-10-25T09:03:49.561Z,100.00
2022-10-25T09:06:34.435Z,100.00
2022-10-25T09:09:33.931Z,100.00
2022-10-25T09:12:15.752Z,100.00
2022-10-25T09:14:43.312Z,100.00
2022-10-25T09:17:31.153Z,100.00
2022-10-25T09:19:57.792Z,100.00
2022-10-25T09:22:30.028Z,100.00
2022-10-25T09:25:02.315Z,100.00
2022-10-25T09:28:04.155Z,100.00
2022-10-25T09:30:37.621Z,100.00
2022-10-25T09:33:11.514Z,99.13
2022-10-25T09:35:46.471Z,97.63
2022-10-25T09:38:35.506Z,94.92
2022-10-25T09:41:06.381Z,93.79
2022-10-25T09:43:41.026Z,90.11
2022-10-25T09:46:18.875Z,87.34
2022-10-25T09:48:54.506Z,87.49
2022-10-25T09:51:43.395Z,86.17
2022-10-25T09:54:24.096Z,84.01
2022-10-25T09:56:50.921Z,82.49
2022-10-25T09:59:17.587Z,81.19
2022-10-25T10:01:44.293Z,80.78
2022-10-25T10:04:24.744Z,82.32
2022-10-25T10:06:56.755Z,83.10
2022-10-25T10:09:28.289Z,82.12
2022-10-25T10:11:56.582Z,82.49
2022-10-25T10:14:41.208Z,83.56
2022-10-25T10:17:15.253Z,86.88
2022-10-25T10:19:43.991Z,85.33
2022-10-25T10:22:15.377Z,85.62
2022-10-25T10:24:44.431Z,83.10
2022-10-25T10:27:24.641Z,84.25
2022-10-25T10:29:55.442Z,82.57
2022-10-25T10:32:32.116Z,82.17
2022-10-25T10:34:59.489Z,82.43
2022-10-25T10:37:32.016Z,83.71
2022-10-25T10:40:13.848Z,83.61
2022-10-25T10:42:42.742Z,84.42
2022-10-25T10:45:15.391Z,84.32
2022-10-25T10:47:44.970Z,84.42
2022-10-25T10:50:23.089Z,83.88
2022-10-25T10:53:06.123Z,85.03
2022-10-25T10:55:35.565Z,83.81
2022-10-25T10:58:14.714Z,83.73
2022-10-25T11:00:50.684Z,85.21
2022-10-25T11:03:42.401Z,86.48
2022-10-25T11:06:15.601Z,84.55
2022-10-25T11:08:44.444Z,83.90
2022-10-25T11:11:14.874Z,83.39
2022-10-25T11:13:58.238Z,83.64
2022-10-25T11:16:42.554Z,82.00
2022-10-25T11:19:36.510Z,83.22
2022-10-25T11:22:24.403Z,84.89
2022-10-25T11:24:50.960Z,81.34
2022-10-25T11:27:39.531Z,80.11
2022-10-25T11:30:23.806Z,81.53
2022-10-25T11:33:05.959Z,81.85
2022-10-25T11:35:48.979Z,82.69
2022-10-25T11:38:26.948Z,84.45
2022-10-25T11:41:23.389Z,84.81
2022-10-25T11:44:08.429Z,85.66
2022-10-25T11:46:53.363Z,84.26
2022-10-25T11:49:36.209Z,83.77
2022-10-25T11:52:18.246Z,84.86
2022-10-25T11:55:00.239Z,85.51
2022-10-25T11:57:52.631Z,85.75
2022-10-25T12:00:29.531Z,85.70
2022-10-25T12:03:25.856Z,86.48
2022-10-25T12:06:15.376Z,86.85
2022-10-25T12:08:57.648Z,83.53
2022-10-25T12:11:33.219Z,86.16
2022-10-25T12:14:05.140Z,83.69
2022-10-25T12:16:34.278Z,80.07
2022-10-25T12:19:15.282Z,82.47
2022-10-25T12:21:50.182Z,80.97
2022-10-25T12:24:23.018Z,80.42
2022-10-25T12:26:53.610Z,82.66
2022-10-25T12:29:26.797Z,81.52
2022-10-25T12:31:57.866Z,80.53
2022-10-25T12:34:39.610Z,79.80
2022-10-25T12:37:12.257Z,80.08
2022-10-25T12:39:40.950Z,78.71
2022-10-25T12:42:26.342Z,77.86
2022-10-25T12:45:12.798Z,78.58
2022-10-25T12:48:10.495Z,78.25
2022-10-25T12:51:00.472Z,79.28
2022-10-25T12:53:58.933Z,77.14
2022-10-25T12:56:34.201Z,78.55
2022-10-25T12:59:15.945Z,78.73
2022-10-25T13:01:42.551Z,78.23
2022-10-25T13:04:42.958Z,78.36
2022-10-25T13:07:11.949Z,79.32
2022-10-25T13:09:39.026Z,77.62
2022-10-25T13:12:06.803Z,76.92
2022-10-25T13:14:38.273Z,76.20
2022-10-25T13:17:20.112Z,76.45
2022-10-25T13:19:55.873Z,76.50
2022-10-25T13:22:39.643Z,74.24
2022-10-25T13:25:26.359Z,73.52
2022-10-25T13:28:13.813Z,72.45
2022-10-25T13:30:41.277Z,72.33
2022-10-25T13:33:24.308Z,72.26
2022-10-25T13:35:51.187Z,74.24
2022-10-25T13:38:21.674Z,73.27
2022-10-25T13:41:12.522Z,70.68
2022-10-25T13:43:57.245Z,73.42
2022-10-25T13:46:30.727Z,72.15
2022-10-25T13:48:57.835Z,71.57
2022-10-25T13:51:24.620Z,70.41
2022-10-25T13:53:53.033Z,70.19
2022-10-25T13:56:48.240Z,69.33
2022-10-25T13:59:50.075Z,70.48
2022-10-25T14:02:20.918Z,70.13
2022-10-25T14:04:47.864Z,69.42
2022-10-25T14:07:45.035Z,68.48
2022-10-25T14:10:24.821Z,69.30
2022-10-25T14:12:53.613Z,68.40
2022-10-25T14:15:33.580Z,69.18
2022-10-25T14:18:07.171Z,68.51
2022-10-25T14:20:35.950Z,67.55
2022-10-25T14:23:06.998Z,66.46
2022-10-25T14:25:51.220Z,67.78
2022-10-25T14:28:28.454Z,67.65
2022-10-25T14:30:55.100Z,66.85
2022-10-25T14:33:28.082Z,65.71
2022-10-25T14:36:10.244Z,65.78
2022-10-25T14:38:54.236Z,64.11
2022-10-25T14:41:25.365Z,63.15
2022-10-25T14:43:52.291Z,62.15
2022-10-25T14:46:21.726Z,60.86
2022-10-25T14:48:53.053Z,61.03
2022-10-25T14:51:24.363Z,59.82
2022-10-25T14:54:01.827Z,58.00
2022-10-25T14:56:36.471Z,60.14
2022-10-25T14:59:06.389Z,60.41
2022-10-25T15:01:34.112Z,61.37
2022-10-25T15:04:01.403Z,64.68
2022-10-25T15:06:31.514Z,64.46
2022-10-25T15:09:37.044Z,66.33
2022-10-25T15:12:05.014Z,67.46
2022-10-25T15:14:31.662Z,69.10
2022-10-25T15:17:03.539Z,71.16
2022-10-25T15:19:30.179Z,72.38
2022-10-25T15:22:10.271Z,72.43
2022-10-25T15:24:46.283Z,71.72
2022-10-25T15:27:35.260Z,72.06
2022-10-25T15:30:02.903Z,74.36
2022-10-25T15:32:29.561Z,77.21
2022-10-25T15:34:59.742Z,79.59
2022-10-25T15:37:28.251Z,81.09
2022-10-25T15:39:56.115Z,82.87
2022-10-25T15:42:25.336Z,83.12
2022-10-25T15:44:52.105Z,84.43
2022-10-25T15:47:28.585Z,84.81
2022-10-25T15:49:55.878Z,86.04
2022-10-25T15:52:22.738Z,86.32
2022-10-25T15:54:49.859Z,86.49
2022-10-25T15:57:17.845Z,87.29
2022-10-25T15:59:45.179Z,87.32
2022-10-25T16:02:20.106Z,88.43
2022-10-25T16:04:47.084Z,90.61
2022-10-25T16:07:15.101Z,90.64
2022-10-25T16:09:42.870Z,91.39
2022-10-25T16:12:19.520Z,91.30
2022-10-25T16:14:46.839Z,91.71
2022-10-25T16:17:14.090Z,92.39
2022-10-25T16:19:40.875Z,93.03
2022-10-25T16:22:07.576Z,93.16
2022-10-25T16:24:34.205Z,93.47
2022-10-25T16:27:01.279Z,93.49
2022-10-25T16:29:27.929Z,94.25
2022-10-25T16:31:54.576Z,95.13
2022-10-25T16:34:21.325Z,95.06
2022-10-25T16:36:50.334Z,94.22
2022-10-25T16:39:16.944Z,94.58
2022-10-25T16:41:45.469Z,94.91
2022-10-25T16:44:13.782Z,95.29
2022-10-25T16:46:40.539Z,96.32
2022-10-25T16:49:09.373Z,96.83
2022-10-25T16:51:37.819Z,97.18
2022-10-25T16:54:05.595Z,97.01
2022-10-25T16:56:32.285Z,97.02
2022-10-25T16:58:58.908Z,97.27
2022-10-25T17:01:29.285Z,97.47
2022-10-25T17:03:56.043Z,97.58
2022-10-25T17:06:42.018Z,97.76
2022-10-25T17:09:09.712Z,97.84
2022-10-25T17:11:36.441Z,98.69
2022-10-25T17:14:11.453Z,100.00
2022-10-25T17:16:40.940Z,100.00
2022-10-25T17:19:09.807Z,100.00
2022-10-25T17:21:36.540Z,100.00
2022-10-25T17:24:04.746Z,100.00
2022-10-25T17:26:31.401Z,100.00
2022-10-25T17:29:00.880Z,100.00
2022-10-25T17:31:28.530Z,100.00
2022-10-25T17:33:56.772Z,100.00
2022-10-25T17:36:23.441Z,100.00
2022-10-25T17:38:50.774Z,100.00
2022-10-25T17:41:17.759Z,100.00
2022-10-25T17:43:44.465Z,100.00
2022-10-25T17:46:18.141Z,100.00
2022-10-25T17:48:45.514Z,100.00
2022-10-25T17:51:14.212Z,100.00
2022-10-25T17:53:40.900Z,100.00
2022-10-25T17:56:17.570Z,100.00
2022-10-25T17:58:46.282Z,100.00
2022-10-25T18:01:15.974Z,100.00
2022-10-25T18:03:42.752Z,100.00
2022-10-25T18:06:11.811Z,100.00
2022-10-25T18:08:38.955Z,100.00
2022-10-25T18:11:15.907Z,100.00
2022-10-25T18:13:42.715Z,100.00
2022-10-25T18:16:10.822Z,100.00
2022-10-25T18:18:38.227Z,100.00
2022-10-25T18:21:07.201Z,100.00
2022-10-25T18:23:34.985Z,100.00
2022-10-25T18:26:02.729Z,100.00
2022-10-25T18:28:32.517Z,100.00
2022-10-25T18:31:00.828Z,100.00
2022-10-25T18:33:31.959Z,100.00
2022-10-25T18:36:00.194Z,100.00
2022-10-25T18:38:27.574Z,100.00
2022-10-25T18:40:57.856Z,100.00
2022-10-25T18:43:25.474Z,100.00
2022-10-25T18:45:59.768Z,100.00
2022-10-25T18:48:27.171Z,100.00
2022-10-25T18:50:54.073Z,100.00
2022-10-25T18:53:22.823Z,100.00
2022-10-25T18:55:51.631Z,100.00
2022-10-25T18:58:18.676Z,100.00
2022-10-25T19:00:46.950Z,100.00
2022-10-25T19:03:15.657Z,100.00
2022-10-25T19:05:43.278Z,100.00
2022-10-25T19:08:11.885Z,100.00
2022-10-25T19:10:39.904Z,100.00
2022-10-25T19:13:08.045Z,100.00
2022-10-25T19:15:35.048Z,100.00
2022-10-25T19:18:02.716Z,100.00
2022-10-25T19:20:29.378Z,100.00
2022-10-25T19:22:58.718Z,100.00
2022-10-25T19:25:29.679Z,100.00
2022-10-25T19:27:56.638Z,100.00
2022-10-25T19:30:23.811Z,100.00
2022-10-25T19:32:51.398Z,100.00
2022-10-25T19:35:19.212Z,100.00
2022-10-25T19:37:46.347Z,100.00
2022-10-25T19:40:14.067Z,100.00
2022-10-25T19:42:40.689Z,100.00
2022-10-25T19:45:07.687Z,100.00
2022-10-25T19:47:35.861Z,100.00
2022-10-25T19:50:05.645Z,100.00
2022-10-25T19:52:36.810Z,100.00
2022-10-25T19:55:07.414Z,100.00
2022-10-25T19:57:35.184Z,100.00
2022-10-25T20:00:02.187Z,100.00
2022-10-25T20:02:29.536Z,100.00
2022-10-25T20:04:56.403Z,100.00
2022-10-25T20:07:24.193Z,100.00
2022-10-25T20:09:50.871Z,100.00
2022-10-25T20:12:17.562Z,100.00
2022-10-25T20:14:44.189Z,100.00
2022-10-25T20:17:12.534Z,100.00
2022-10-25T20:19:39.301Z,100.00
2022-10-25T20:22:05.991Z,100.00
2022-10-25T20:24:32.648Z,100.00
2022-10-25T20:27:00.184Z,100.00
2022-10-25T20:29:27.199Z,100.00
2022-10-25T20:31:53.921Z,100.00
2022-10-25T20:34:20.783Z,100.00
2022-10-25T20:36:48.807Z,100.00
2022-10-25T20:39:16.004Z,100.00
2022-10-25T20:41:42.711Z,100.00
2022-10-25T20:44:09.789Z,100.00
2022-10-25T20:46:36.843Z,100.00
2022-10-25T20:49:04.879Z,100.00
2022-10-25T20:51:31.630Z,100.00
2022-10-25T20:53:58.394Z,100.00
2022-10-25T20:56:25.063Z,100.00
2022-10-25T20:58:51.764Z,100.00
2022-10-25T21:01:18.977Z,100.00
2022-10-25T21:03:45.720Z,100.00
2022-10-25T21:06:13.456Z,100.00
2022-10-25T21:08:40.170Z,100.00
2022-10-25T21:11:09.462Z,100.00
2022-10-25T21:13:36.986Z,100.00
2022-10-25T21:16:09.752Z,100.00
2022-10-25T21:18:37.590Z,100.00
2022-10-25T21:21:07.620Z,100.00
2022-10-25T21:23:35.081Z,100.00
2022-10-25T21:26:04.118Z,100.00
2022-10-25T21:28:34.840Z,100.00
2022-10-25T21:31:06.837Z,100.00
2022-10-25T21:33:33.723Z,100.00
2022-10-25T21:36:11.123Z,100.00
2022-10-25T21:38:38.211Z,100.00
2022-10-25T21:41:07.251Z,100.00
2022-10-25T21:43:34.515Z,100.00
2022-10-25T21:46:04.686Z,100.00
2022-10-25T21:48:31.357Z,100.00
2022-10-25T21:50:59.116Z,100.00
2022-10-25T21:53:26.128Z,100.00
2022-10-25T21:56:04.336Z,100.00
2022-10-25T21:58:31.001Z,100.00
2022-10-25T22:00:57.680Z,100.00
2022-10-25T22:03:26.931Z,100.00
2022-10-25T22:05:54.386Z,100.00
2022-10-25T22:08:21.996Z,100.00
2022-10-25T22:13:26.631Z,100.00
2022-10-25T22:15:57.029Z,100.00
2022-10-25T22:18:23.770Z,100.00
2022-10-25T22:20:55.768Z,100.00
2022-10-25T22:23:23.897Z,100.00
2022-10-25T22:25:50.729Z,100.00
2022-10-25T22:28:17.467Z,100.00
2022-10-25T22:30:44.874Z,100.00
2022-10-25T22:33:11.739Z,100.00
2022-10-25T22:35:41.608Z,100.00
2022-10-25T22:38:08.292Z,100.00
2022-10-25T22:40:34.947Z,100.00
2022-10-25T22:43:06.464Z,100.00
2022-10-25T22:45:35.473Z,100.00
2022-10-25T22:48:02.128Z,100.00
2022-10-25T22:50:28.824Z,100.00
2022-10-25T22:52:55.439Z,100.00
2022-10-25T22:55:22.146Z,100.00
2022-10-25T22:57:49.053Z,100.00
2022-10-25T23:00:15.947Z,100.00
2022-10-25T23:02:42.596Z,100.00
2022-10-25T23:05:09.451Z,100.00
2022-10-25T23:07:36.228Z,100.00
2022-10-25T23:10:02.943Z,100.00
2022-10-25T23:12:29.627Z,100.00
2022-10-25T23:14:56.252Z,100.00
2022-10-25T23:17:22.984Z,100.00
2022-10-25T23:19:49.639Z,100.00
2022-10-25T23:22:16.262Z,100.00
2022-10-25T23:24:42.892Z,100.00
2022-10-25T23:27:09.526Z,100.00
2022-10-25T23:29:36.198Z,100.00
2022-10-25T23:32:02.942Z,100.00
2022-10-25T23:34:32.188Z,100.00
2022-10-25T23:36:58.913Z,100.00
2022-10-25T23:39:25.636Z,100.00
2022-10-25T23:41:56.698Z,100.00
2022-10-25T23:44:24.296Z,100.00
2022-10-25T23:46:51.008Z,100.00
2022-10-25T23:49:17.682Z,100.00
2022-10-25T23:51:44.699Z,100.00
2022-10-25T23:54:11.324Z,100.00
2022-10-25T23:56:38.278Z,100.00
2022-10-25T23:59:04.946Z,100.00
